Queanbeyan, Australia
Current Conditions -  °F | °C
As of 12:30 AM on Friday 31 Oct 2014 (Local Time) from YSCB Reporting Station
Clear Clear  
Wind Chill: 50°   Ceiling: Unl
Heat Index: 50°   Visibility: 6mi
Dew Point: 39°   Wind: 0mph
Humidity: 66%   Direction: NA
Pressure: 29.97"   Gusts: NA
Location:  35.35°S, 149.23°E
Report Text: YSCB 301330Z AUTO 00000KT 9999 // NCD 10/04 Q1015
Loading
Personal Weather Stations






























Interactive Weather Map
Tropical Storm Tracking
New forecast layout! Learn more

10-Day Weather Forecast

Advertisements
Track Severe Weather on mobile